EHLW

Leeuwarden Air Base Airport

Leeuwarden, The Netherlands
METAR EHLW 181925Z AUTO 21003KT 0400 R23/0200N FG OVC000 01/01 Q1029 RED
Observed Flight Rules
Dec-18 @ 19:25 UTC (45 minutes ago) Instrument Flight Rules
Wind Visibility Clouds Conditions
210° at 3 knots 402 meters
  • Overcast
  • Fog
Temperatures Readings
Current 1°C / 34°F
Dewpoint 1°C / 34°F
Humidity 100%
Altimeter 30.38" Hg
Pressure 1029 hPa
Elevation 2
METAR EHLW 181925Z AUTO 21003KT 0400 R23/0200N FG OVC000 01/01 Q1029 RED
Observed Flight Rules
Dec-18 @ 19:25 UTC
(45 minutes ago)
LIFR
Wind Visibility
210° at 3 knots 402 meters
Clouds
  • Overcast
Conditions
  • Fog
Temperature Dewpoint
1°C / 34°F 1°C / 34°F
Humidity Altimeter Pressure
100% 30.38" Hg 1029 hPa